sensor_id;sensor_type;location;lat;lon;timestamp;pressure;altitude;pressure_sealevel;temperature;humidity
75438;BME280;64015;49.392;15.582;2023-08-08T00:00:49;95740.06;;;10.43;100.00
75438;BME280;64015;49.392;15.582;2023-08-08T00:03:32;95725.03;;;10.44;100.00
75438;BME280;64015;49.392;15.582;2023-08-08T00:05:58;95722.94;;;10.36;100.00
75438;BME280;64015;49.392;15.582;2023-08-08T00:08:23;95726.88;;;10.38;100.00
75438;BME280;64015;49.392;15.582;2023-08-08T00:10:49;95731.91;;;10.35;100.00
75438;BME280;64015;49.392;15.582;2023-08-08T00:13:15;95730.59;;;10.27;100.00
75438;BME280;64015;49.392;15.582;2023-08-08T00:15:41;95727.41;;;10.30;100.00
75438;BME280;64015;49.392;15.582;2023-08-08T00:18:13;95723.75;;;10.26;100.00
75438;BME280;64015;49.392;15.582;2023-08-08T00:20:39;95723.75;;;10.26;100.00
75438;BME280;64015;49.392;15.582;2023-08-08T00:23:04;95721.91;;;10.27;100.00
75438;BME280;64015;49.392;15.582;2023-08-08T00:25:31;95722.44;;;10.19;100.00
75438;BME280;64015;49.392;15.582;2023-08-08T00:27:56;95722.94;;;10.21;100.00
75438;BME280;64015;49.392;15.582;2023-08-08T00:30:22;95730.31;;;10.14;100.00
75438;BME280;64015;49.392;15.582;2023-08-08T00:32:57;95724.78;;;10.10;100.00
75438;BME280;64015;49.392;15.582;2023-08-08T00:35:23;95731.91;;;10.04;100.00
75438;BME280;64015;49.392;15.582;2023-08-08T00:37:49;95723.72;;;10.06;100.00
75438;BME280;64015;49.392;15.582;2023-08-08T00:40:15;95720.03;;;9.97;100.00
75438;BME280;64015;49.392;15.582;2023-08-08T00:42:41;95727.41;;;10.05;100.00
75438;BME280;64015;49.392;15.582;2023-08-08T00:45:07;95718.97;;;10.03;100.00
75438;BME280;64015;49.392;15.582;2023-08-08T00:47:34;95724.25;;;10.03;100.00
75438;BME280;64015;49.392;15.582;2023-08-08T00:50:00;95724.53;;;10.06;100.00
75438;BME280;64015;49.392;15.582;2023-08-08T00:52:28;95720.84;;;10.18;100.00
75438;BME280;64015;49.392;15.582;2023-08-08T00:54:54;95722.13;;;10.15;100.00
75438;BME280;64015;49.392;15.582;2023-08-08T00:57:20;95721.09;;;10.26;100.00
75438;BME280;64015;49.392;15.582;2023-08-08T01:02:30;95725.56;;;10.31;100.00
75438;BME280;64015;49.392;15.582;2023-08-08T01:04:57;95720.59;;;10.24;100.00
75438;BME280;64015;49.392;15.582;2023-08-08T01:10:17;95727.44;;;10.35;100.00
75438;BME280;64015;49.392;15.582;2023-08-08T01:12:46;95721.34;;;10.35;100.00
75438;BME280;64015;49.392;15.582;2023-08-08T01:15:49;95725.81;;;10.39;100.00
75438;BME280;64015;49.392;15.582;2023-08-08T01:18:16;95723.75;;;10.36;100.00
75438;BME280;64015;49.392;15.582;2023-08-08T01:20:43;95718.72;;;10.30;100.00
75438;BME280;64015;49.392;15.582;2023-08-08T01:25:59;95716.38;;;10.18;100.00
75438;BME280;64015;49.392;15.582;2023-08-08T01:28:28;95714.25;;;10.05;100.00
75438;BME280;64015;49.392;15.582;2023-08-08T01:30:54;95711.88;;;9.98;100.00
75438;BME280;64015;49.392;15.582;2023-08-08T01:33:20;95715.28;;;9.94;100.00
75438;BME280;64015;49.392;15.582;2023-08-08T01:36:07;95719.25;;;9.86;100.00
75438;BME280;64015;49.392;15.582;2023-08-08T01:38:41;95707.66;;;9.77;100.00
75438;BME280;64015;49.392;15.582;2023-08-08T01:41:07;95711.09;;;9.88;100.00
75438;BME280;64015;49.392;15.582;2023-08-08T01:43:35;95712.13;;;9.92;100.00
75438;BME280;64015;49.392;15.582;2023-08-08T01:46:02;95708.97;;;9.95;100.00
75438;BME280;64015;49.392;15.582;2023-08-08T01:48:29;95705.25;;;10.01;100.00
75438;BME280;64015;49.392;15.582;2023-08-08T01:50:55;95705.56;;;9.99;100.00
75438;BME280;64015;49.392;15.582;2023-08-08T01:53:30;95701.59;;;10.02;100.00
75438;BME280;64015;49.392;15.582;2023-08-08T01:55:55;95701.56;;;10.12;100.00
75438;BME280;64015;49.392;15.582;2023-08-08T01:58:21;95704.78;;;10.19;100.00
75438;BME280;64015;49.392;15.582;2023-08-08T02:00:47;95704.50;;;10.26;100.00
75438;BME280;64015;49.392;15.582;2023-08-08T02:03:16;95701.59;;;10.17;100.00
75438;BME280;64015;49.392;15.582;2023-08-08T02:05:42;95697.94;;;10.18;100.00
75438;BME280;64015;49.392;15.582;2023-08-08T02:08:07;95696.59;;;10.26;100.00
75438;BME280;64015;49.392;15.582;2023-08-08T02:10:33;95697.63;;;10.30;100.00
75438;BME280;64015;49.392;15.582;2023-08-08T02:12:59;95704.50;;;10.21;100.00
75438;BME280;64015;49.392;15.582;2023-08-08T02:15:25;95701.06;;;10.25;100.00
75438;BME280;64015;49.392;15.582;2023-08-08T02:17:50;95705.03;;;10.23;100.00
75438;BME280;64015;49.392;15.582;2023-08-08T02:20:31;95703.19;;;10.23;100.00
75438;BME280;64015;49.392;15.582;2023-08-08T02:22:57;95707.91;;;10.21;100.00
75438;BME280;64015;49.392;15.582;2023-08-08T02:25:23;95708.97;;;10.15;100.00
75438;BME280;64015;49.392;15.582;2023-08-08T02:27:48;95707.91;;;10.01;100.00
75438;BME280;64015;49.392;15.582;2023-08-08T02:30:14;95702.63;;;10.01;100.00
75438;BME280;64015;49.392;15.582;2023-08-08T02:32:40;95693.16;;;10.00;100.00
75438;BME280;64015;49.392;15.582;2023-08-08T02:35:06;95711.06;;;9.83;100.00
75438;BME280;64015;49.392;15.582;2023-08-08T02:37:33;95715.53;;;9.67;100.00
75438;BME280;64015;49.392;15.582;2023-08-08T02:40:04;95696.06;;;9.68;100.00
75438;BME280;64015;49.392;15.582;2023-08-08T02:42:30;95701.06;;;9.74;100.00
75438;BME280;64015;49.392;15.582;2023-08-08T02:44:56;95706.34;;;9.85;100.00
75438;BME280;64015;49.392;15.582;2023-08-08T02:47:22;95702.66;;;9.91;100.00
75438;BME280;64015;49.392;15.582;2023-08-08T02:49:53;95698.97;;;9.87;100.00
75438;BME280;64015;49.392;15.582;2023-08-08T02:52:19;95708.97;;;9.69;100.00
75438;BME280;64015;49.392;15.582;2023-08-08T02:54:45;95709.50;;;9.77;100.00
75438;BME280;64015;49.392;15.582;2023-08-08T02:57:15;95711.06;;;9.78;100.00
75438;BME280;64015;49.392;15.582;2023-08-08T02:59:41;95705.78;;;9.67;100.00
75438;BME280;64015;49.392;15.582;2023-08-08T03:02:07;95707.38;;;9.58;100.00
75438;BME280;64015;49.392;15.582;2023-08-08T03:04:33;95717.63;;;9.55;100.00
75438;BME280;64015;49.392;15.582;2023-08-08T03:06:59;95712.88;;;9.47;100.00
75438;BME280;64015;49.392;15.582;2023-08-08T03:09:34;95714.19;;;9.39;100.00
75438;BME280;64015;49.392;15.582;2023-08-08T03:12:00;95712.88;;;9.42;100.00
75438;BME280;64015;49.392;15.582;2023-08-08T03:14:26;95718.88;;;9.27;100.00
75438;BME280;64015;49.392;15.582;2023-08-08T03:16:51;95720.75;;;9.26;100.00
75438;BME280;64015;49.392;15.582;2023-08-08T03:19:17;95718.13;;;9.31;100.00
75438;BME280;64015;49.392;15.582;2023-08-08T03:21:43;95715.19;;;9.28;100.00
75438;BME280;64015;49.392;15.582;2023-08-08T03:24:09;95720.47;;;9.23;100.00
75438;BME280;64015;49.392;15.582;2023-08-08T03:26:34;95712.00;;;9.11;100.00
75438;BME280;64015;49.392;15.582;2023-08-08T03:29:00;95715.72;;;9.20;100.00
75438;BME280;64015;49.392;15.582;2023-08-08T03:31:26;95717.56;;;9.14;100.00
75438;BME280;64015;49.392;15.582;2023-08-08T03:33:52;95707.81;;;9.15;100.00
75438;BME280;64015;49.392;15.582;2023-08-08T03:36:18;95712.59;;;9.33;100.00
75438;BME280;64015;49.392;15.582;2023-08-08T03:38:44;95709.97;;;9.33;100.00
75438;BME280;64015;49.392;15.582;2023-08-08T03:41:12;95721.53;;;9.32;100.00
75438;BME280;64015;49.392;15.582;2023-08-08T03:43:38;95722.59;;;9.36;100.00
75438;BME280;64015;49.392;15.582;2023-08-08T03:46:04;95721.00;;;9.25;100.00
75438;BME280;64015;49.392;15.582;2023-08-08T03:48:30;95727.81;;;9.16;100.00
75438;BME280;64015;49.392;15.582;2023-08-08T03:50:56;95720.50;;;9.33;100.00
75438;BME280;64015;49.392;15.582;2023-08-08T03:53:22;95728.63;;;9.21;100.00
75438;BME280;64015;49.392;15.582;2023-08-08T03:55:50;95724.69;;;9.24;100.00
75438;BME280;64015;49.392;15.582;2023-08-08T03:58:16;95724.69;;;9.29;100.00
75438;BME280;64015;49.392;15.582;2023-08-08T04:00:42;95726.78;;;9.22;100.00
75438;BME280;64015;49.392;15.582;2023-08-08T04:03:24;95734.38;;;9.18;100.00
75438;BME280;64015;49.392;15.582;2023-08-08T04:05:50;95734.69;;;9.27;100.00
75438;BME280;64015;49.392;15.582;2023-08-08T04:08:16;95734.16;;;9.25;100.00
75438;BME280;64015;49.392;15.582;2023-08-08T04:10:42;95736.28;;;9.33;100.00
75438;BME280;64015;49.392;15.582;2023-08-08T04:13:27;95736.84;;;9.45;100.00
75438;BME280;64015;49.392;15.582;2023-08-08T04:15:53;95728.44;;;9.58;100.00
75438;BME280;64015;49.392;15.582;2023-08-08T04:18:25;95730.03;;;9.59;100.00
75438;BME280;64015;49.392;15.582;2023-08-08T04:20:51;95733.44;;;9.65;100.00
75438;BME280;64015;49.392;15.582;2023-08-08T04:23:17;95728.47;;;9.89;100.00
75438;BME280;64015;49.392;15.582;2023-08-08T04:25:48;95730.84;;;9.95;100.00
75438;BME280;64015;49.392;15.582;2023-08-08T04:28:15;95726.09;;;9.92;100.00
75438;BME280;64015;49.392;15.582;2023-08-08T04:30:53;95733.22;;;10.07;100.00
75438;BME280;64015;49.392;15.582;2023-08-08T04:33:19;95743.75;;;9.97;100.00
75438;BME280;64015;49.392;15.582;2023-08-08T04:35:45;95756.66;;;10.14;100.00
75438;BME280;64015;49.392;15.582;2023-08-08T04:38:14;95749.56;;;10.14;100.00
75438;BME280;64015;49.392;15.582;2023-08-08T04:40:40;95751.66;;;10.12;100.00
75438;BME280;64015;49.392;15.582;2023-08-08T04:43:06;95755.88;;;10.13;100.00
75438;BME280;64015;49.392;15.582;2023-08-08T04:45:32;95761.97;;;10.19;100.00
75438;BME280;64015;49.392;15.582;2023-08-08T04:47:58;95760.63;;;10.16;100.00
75438;BME280;64015;49.392;15.582;2023-08-08T04:50:24;95783.06;;;10.24;100.00
75438;BME280;64015;49.392;15.582;2023-08-08T04:52:50;95788.59;;;10.27;100.00
75438;BME280;64015;49.392;15.582;2023-08-08T04:55:16;95796.50;;;10.27;100.00
75438;BME280;64015;49.392;15.582;2023-08-08T04:57:42;95799.41;;;10.31;100.00
75438;BME280;64015;49.392;15.582;2023-08-08T05:00:08;95808.09;;;10.26;100.00
75438;BME280;64015;49.392;15.582;2023-08-08T05:02:46;95798.59;;;10.20;100.00
75438;BME280;64015;49.392;15.582;2023-08-08T05:05:12;95805.16;;;10.13;100.00
75438;BME280;64015;49.392;15.582;2023-08-08T05:07:38;95784.06;;;10.13;100.00
75438;BME280;64015;49.392;15.582;2023-08-08T05:10:04;95794.63;;;9.97;100.00
75438;BME280;64015;49.392;15.582;2023-08-08T05:12:32;95804.88;;;9.94;100.00
75438;BME280;64015;49.392;15.582;2023-08-08T05:14:57;95812.53;;;9.95;100.00
75438;BME280;64015;49.392;15.582;2023-08-08T05:17:26;95801.19;;;9.95;100.00
75438;BME280;64015;49.392;15.582;2023-08-08T05:19:52;95794.59;;;9.82;100.00
75438;BME280;64015;49.392;15.582;2023-08-08T05:22:18;95794.06;;;9.85;100.00
75438;BME280;64015;49.392;15.582;2023-08-08T05:25:02;95791.72;;;9.89;100.00
75438;BME280;64015;49.392;15.582;2023-08-08T05:27:28;95786.97;;;9.91;100.00
75438;BME280;64015;49.392;15.582;2023-08-08T05:29:54;95773.00;;;9.90;100.00
75438;BME280;64015;49.392;15.582;2023-08-08T05:32:20;95788.00;;;9.95;100.00
75438;BME280;64015;49.392;15.582;2023-08-08T05:34:47;95777.50;;;10.00;100.00
75438;BME280;64015;49.392;15.582;2023-08-08T05:37:14;95780.38;;;9.93;100.00
75438;BME280;64015;49.392;15.582;2023-08-08T05:39:40;95787.47;;;9.93;100.00
75438;BME280;64015;49.392;15.582;2023-08-08T05:42:06;95792.75;;;10.03;100.00
75438;BME280;64015;49.392;15.582;2023-08-08T05:44:32;95794.09;;;9.95;100.00
75438;BME280;64015;49.392;15.582;2023-08-08T05:46:58;95780.66;;;9.97;100.00
75438;BME280;64015;49.392;15.582;2023-08-08T05:49:24;95791.72;;;10.09;100.00
75438;BME280;64015;49.392;15.582;2023-08-08T05:51:50;95779.34;;;10.15;100.00
75438;BME280;64015;49.392;15.582;2023-08-08T05:54:15;95780.69;;;10.22;100.00
75438;BME280;64015;49.392;15.582;2023-08-08T05:56:41;95790.72;;;10.25;100.00
75438;BME280;64015;49.392;15.582;2023-08-08T05:59:19;95777.25;;;10.37;100.00
75438;BME280;64015;49.392;15.582;2023-08-08T06:01:45;95781.22;;;10.44;100.00
75438;BME280;64015;49.392;15.582;2023-08-08T06:04:12;95783.31;;;10.53;100.00
75438;BME280;64015;49.392;15.582;2023-08-08T06:06:53;95783.84;;;10.55;100.00
75438;BME280;64015;49.392;15.582;2023-08-08T06:09:19;95783.84;;;10.55;100.00
75438;BME280;64015;49.392;15.582;2023-08-08T06:11:47;95777.72;;;10.69;100.00
75438;BME280;64015;49.392;15.582;2023-08-08T06:14:22;95778.47;;;10.90;100.00
75438;BME280;64015;49.392;15.582;2023-08-08T06:16:48;95784.53;;;10.96;100.00
75438;BME280;64015;49.392;15.582;2023-08-08T06:19:13;95785.06;;;11.03;100.00
75438;BME280;64015;49.392;15.582;2023-08-08T06:21:41;95790.03;;;11.04;100.00
75438;BME280;64015;49.392;15.582;2023-08-08T06:24:07;95790.03;;;11.09;100.00
75438;BME280;64015;49.392;15.582;2023-08-08T06:26:33;95787.94;;;11.06;100.00
75438;BME280;64015;49.392;15.582;2023-08-08T06:28:59;95794.75;;;11.12;100.00
75438;BME280;64015;49.392;15.582;2023-08-08T06:31:25;95791.88;;;11.09;100.00
75438;BME280;64015;49.392;15.582;2023-08-08T06:33:50;95791.84;;;11.14;100.00
75438;BME280;64015;49.392;15.582;2023-08-08T06:36:16;95789.78;;;11.11;100.00
75438;BME280;64015;49.392;15.582;2023-08-08T06:38:42;95782.09;;;11.19;100.00
75438;BME280;64015;49.392;15.582;2023-08-08T06:41:08;95779.94;;;11.27;100.00
75438;BME280;64015;49.392;15.582;2023-08-08T06:43:34;95783.28;;;11.42;100.00
75438;BME280;64015;49.392;15.582;2023-08-08T06:46:04;95785.72;;;11.39;100.00
75438;BME280;64015;49.392;15.582;2023-08-08T06:48:30;95773.00;;;11.41;100.00
75438;BME280;64015;49.392;15.582;2023-08-08T06:50:56;95766.59;;;11.52;100.00
75438;BME280;64015;49.392;15.582;2023-08-08T06:53:22;95770.72;;;11.73;100.00
75438;BME280;64015;49.392;15.582;2023-08-08T06:55:48;95780.22;;;11.79;100.00
75438;BME280;64015;49.392;15.582;2023-08-08T06:58:26;95771.44;;;11.89;100.00
75438;BME280;64015;49.392;15.582;2023-08-08T07:00:52;95764.97;;;12.05;100.00
75438;BME280;64015;49.392;15.582;2023-08-08T07:03:18;95769.97;;;12.07;100.00
75438;BME280;64015;49.392;15.582;2023-08-08T07:05:43;95776.84;;;12.08;100.00
75438;BME280;64015;49.392;15.582;2023-08-08T07:08:09;95767.59;;;12.10;100.00
75438;BME280;64015;49.392;15.582;2023-08-08T07:10:35;95770.44;;;12.19;100.00
75438;BME280;64015;49.392;15.582;2023-08-08T07:13:01;95774.31;;;12.31;100.00
75438;BME280;64015;49.392;15.582;2023-08-08T07:15:27;95765.16;;;12.48;100.00
75438;BME280;64015;49.392;15.582;2023-08-08T07:17:53;95772.56;;;12.51;100.00
75438;BME280;64015;49.392;15.582;2023-08-08T07:20:19;95765.53;;;12.36;100.00
75438;BME280;64015;49.392;15.582;2023-08-08T07:22:45;95763.63;;;12.42;100.00
75438;BME280;64015;49.392;15.582;2023-08-08T07:25:14;95759.53;;;12.25;100.00
75438;BME280;64015;49.392;15.582;2023-08-08T07:27:40;95763.94;;;12.35;100.00
75438;BME280;64015;49.392;15.582;2023-08-08T07:30:08;95753.69;;;12.57;100.00
75438;BME280;64015;49.392;15.582;2023-08-08T07:32:34;95747.25;;;12.68;100.00
75438;BME280;64015;49.392;15.582;2023-08-08T07:35:00;95751.50;;;12.64;96.92
75438;BME280;64015;49.392;15.582;2023-08-08T07:37:31;95742.50;;;12.65;98.28
75438;BME280;64015;49.392;15.582;2023-08-08T07:39:58;95747.97;;;12.74;99.61
75438;BME280;64015;49.392;15.582;2023-08-08T07:42:24;95750.84;;;12.78;95.22
75438;BME280;64015;49.392;15.582;2023-08-08T07:44:50;95745.56;;;12.78;97.27
75438;BME280;64015;49.392;15.582;2023-08-08T07:47:16;95745.94;;;12.90;96.57
75438;BME280;64015;49.392;15.582;2023-08-08T07:49:42;95757.91;;;12.87;95.74
75438;BME280;64015;49.392;15.582;2023-08-08T07:52:08;95760.91;;;12.99;94.21
75438;BME280;64015;49.392;15.582;2023-08-08T07:54:38;95767.16;;;13.08;94.14
75438;BME280;64015;49.392;15.582;2023-08-08T07:57:06;95748.78;;;13.22;95.66
75438;BME280;64015;49.392;15.582;2023-08-08T07:59:38;95744.63;;;13.35;93.54
75438;BME280;64015;49.392;15.582;2023-08-08T08:02:03;95742.59;;;13.51;94.91
75438;BME280;64015;49.392;15.582;2023-08-08T08:04:42;95742.66;;;13.45;91.25
75438;BME280;64015;49.392;15.582;2023-08-08T08:07:11;95740.66;;;13.56;92.27
75438;BME280;64015;49.392;15.582;2023-08-08T08:09:37;95747.47;;;13.62;89.72
75438;BME280;64015;49.392;15.582;2023-08-08T08:12:03;95754.03;;;13.65;88.76
75438;BME280;64015;49.392;15.582;2023-08-08T08:14:35;95742.78;;;13.73;86.74
75438;BME280;64015;49.392;15.582;2023-08-08T08:17:03;95736.69;;;13.91;88.98
75438;BME280;64015;49.392;15.582;2023-08-08T08:19:29;95743.69;;;14.19;84.34
75438;BME280;64015;49.392;15.582;2023-08-08T08:21:57;95739.31;;;14.10;82.54
75438;BME280;64015;49.392;15.582;2023-08-08T08:24:32;95737.00;;;14.22;82.65
75438;BME280;64015;49.392;15.582;2023-08-08T08:26:58;95757.06;;;14.28;78.89
75438;BME280;64015;49.392;15.582;2023-08-08T08:29:29;95742.31;;;14.41;77.89
75438;BME280;64015;49.392;15.582;2023-08-08T08:31:57;95737.94;;;14.64;78.40
75438;BME280;64015;49.392;15.582;2023-08-08T08:34:23;95747.16;;;14.66;75.94
75438;BME280;64015;49.392;15.582;2023-08-08T08:37:01;95746.31;;;14.71;75.26
75438;BME280;64015;49.392;15.582;2023-08-08T08:39:30;95744.31;;;14.76;75.29
75438;BME280;64015;49.392;15.582;2023-08-08T08:42:00;95748.28;;;14.92;74.34
75438;BME280;64015;49.392;15.582;2023-08-08T08:44:35;95728.91;;;15.06;74.66
75438;BME280;64015;49.392;15.582;2023-08-08T08:47:08;95732.41;;;15.42;74.90
75438;BME280;64015;49.392;15.582;2023-08-08T08:49:52;95732.13;;;15.30;73.55
75438;BME280;64015;49.392;15.582;2023-08-08T08:52:20;95725.13;;;15.20;71.63
75438;BME280;64015;49.392;15.582;2023-08-08T08:54:45;95730.88;;;15.27;74.79
75438;BME280;64015;49.392;15.582;2023-08-08T08:57:12;95743.25;;;15.05;73.45
75438;BME280;64015;49.392;15.582;2023-08-08T08:59:38;95736.47;;;14.85;76.20
75438;BME280;64015;49.392;15.582;2023-08-08T09:02:04;95738.63;;;14.83;77.67
75438;BME280;64015;49.392;15.582;2023-08-08T09:04:30;95736.97;;;14.87;77.90
75438;BME280;64015;49.392;15.582;2023-08-08T09:07:11;95738.94;;;14.95;75.30
75438;BME280;64015;49.392;15.582;2023-08-08T09:09:38;95738.13;;;14.94;76.27
75438;BME280;64015;49.392;15.582;2023-08-08T09:12:07;95735.38;;;15.13;77.71
75438;BME280;64015;49.392;15.582;2023-08-08T09:14:45;95751.59;;;15.39;73.85
75438;BME280;64015;49.392;15.582;2023-08-08T09:17:24;95725.09;;;15.48;73.49
75438;BME280;64015;49.392;15.582;2023-08-08T09:19:50;95720.28;;;15.63;72.70
75438;BME280;64015;49.392;15.582;2023-08-08T09:22:16;95720.88;;;15.60;69.58
75438;BME280;64015;49.392;15.582;2023-08-08T09:24:42;95746.97;;;15.58;71.78
75438;BME280;64015;49.392;15.582;2023-08-08T09:30:17;95731.63;;;15.55;70.99
75438;BME280;64015;49.392;15.582;2023-08-08T09:33:12;95729.16;;;15.59;70.75
75438;BME280;64015;49.392;15.582;2023-08-08T09:35:38;95734.94;;;15.75;69.21
75438;BME280;64015;49.392;15.582;2023-08-08T09:38:16;95729.97;;;15.82;70.60
75438;BME280;64015;49.392;15.582;2023-08-08T09:40:42;95730.34;;;15.89;69.69
75438;BME280;64015;49.392;15.582;2023-08-08T09:43:28;95721.88;;;15.87;69.65
75438;BME280;64015;49.392;15.582;2023-08-08T09:45:54;95722.09;;;15.77;70.02
75438;BME280;64015;49.392;15.582;2023-08-08T09:51:03;95715.16;;;15.89;70.70
75438;BME280;64015;49.392;15.582;2023-08-08T09:53:30;95718.19;;;15.96;69.04
75438;BME280;64015;49.392;15.582;2023-08-08T09:55:56;95712.81;;;16.10;68.74
75438;BME280;64015;49.392;15.582;2023-08-08T09:58:23;95718.75;;;16.29;67.38
75438;BME280;64015;49.392;15.582;2023-08-08T10:00:52;95715.03;;;16.39;65.52
75438;BME280;64015;49.392;15.582;2023-08-08T10:03:18;95701.28;;;16.46;64.69
75438;BME280;64015;49.392;15.582;2023-08-08T10:05:45;95721.03;;;16.45;62.82
75438;BME280;64015;49.392;15.582;2023-08-08T10:08:14;95709.72;;;16.39;63.22
75438;BME280;64015;49.392;15.582;2023-08-08T10:10:42;95710.66;;;16.43;63.45
75438;BME280;64015;49.392;15.582;2023-08-08T10:13:10;95710.84;;;16.47;61.33
75438;BME280;64015;49.392;15.582;2023-08-08T10:15:49;95706.81;;;16.49;62.98
75438;BME280;64015;49.392;15.582;2023-08-08T10:18:15;95707.88;;;16.48;61.66
75438;BME280;64015;49.392;15.582;2023-08-08T10:20:49;95715.56;;;16.50;61.96
75438;BME280;64015;49.392;15.582;2023-08-08T10:30:16;95698.41;;;16.33;63.47
75438;BME280;64015;49.392;15.582;2023-08-08T10:32:44;95702.69;;;16.43;62.88
75438;BME280;64015;49.392;15.582;2023-08-08T10:35:12;95710.75;;;16.29;61.44
75438;BME280;64015;49.392;15.582;2023-08-08T10:37:38;95701.19;;;16.28;61.60
75438;BME280;64015;49.392;15.582;2023-08-08T10:40:05;95706.53;;;16.28;62.28
75438;BME280;64015;49.392;15.582;2023-08-08T10:42:49;95699.19;;;16.34;62.28
75438;BME280;64015;49.392;15.582;2023-08-08T10:45:17;95693.31;;;16.46;61.70
75438;BME280;64015;49.392;15.582;2023-08-08T10:47:43;95685.06;;;16.56;61.16
75438;BME280;64015;49.392;15.582;2023-08-08T10:50:23;95678.59;;;16.79;59.90
75438;BME280;64015;49.392;15.582;2023-08-08T10:55:36;95667.88;;;17.10;57.07
75438;BME280;64015;49.392;15.582;2023-08-08T10:58:07;95682.19;;;17.31;56.92
75438;BME280;64015;49.392;15.582;2023-08-08T11:00:57;95668.41;;;17.55;54.15
75438;BME280;64015;49.392;15.582;2023-08-08T11:03:23;95672.34;;;17.66;53.57
75438;BME280;64015;49.392;15.582;2023-08-08T11:05:50;95670.47;;;17.75;52.65
75438;BME280;64015;49.392;15.582;2023-08-08T11:08:15;95655.06;;;17.98;52.25
75438;BME280;64015;49.392;15.582;2023-08-08T11:10:41;95652.69;;;18.14;49.94
75438;BME280;64015;49.392;15.582;2023-08-08T11:13:26;95651.78;;;18.56;49.57
75438;BME280;64015;49.392;15.582;2023-08-08T11:15:52;95657.56;;;19.05;48.56
75438;BME280;64015;49.392;15.582;2023-08-08T11:18:18;95653.53;;;19.20;47.02
75438;BME280;64015;49.392;15.582;2023-08-08T11:20:53;95632.47;;;19.39;45.41
75438;BME280;64015;49.392;15.582;2023-08-08T11:23:19;95629.81;;;20.13;42.39
75438;BME280;64015;49.392;15.582;2023-08-08T11:25:46;95655.63;;;20.88;41.43
75438;BME280;64015;49.392;15.582;2023-08-08T11:28:23;95633.72;;;20.85;37.48
75438;BME280;64015;49.392;15.582;2023-08-08T11:30:49;95624.88;;;21.74;37.04
75438;BME280;64015;49.392;15.582;2023-08-08T11:33:18;95632.34;;;22.52;34.81
75438;BME280;64015;49.392;15.582;2023-08-08T11:35:45;95621.16;;;23.67;34.67
75438;BME280;64015;49.392;15.582;2023-08-08T11:38:12;95609.00;;;24.57;32.19
75438;BME280;64015;49.392;15.582;2023-08-08T11:40:38;95627.59;;;24.01;31.75
75438;BME280;64015;49.392;15.582;2023-08-08T11:45:55;95605.09;;;25.00;28.60
75438;BME280;64015;49.392;15.582;2023-08-08T11:48:21;95604.72;;;24.79;29.18
75438;BME280;64015;49.392;15.582;2023-08-08T11:50:47;95614.47;;;23.06;32.46
75438;BME280;64015;49.392;15.582;2023-08-08T11:53:14;95622.00;;;22.38;33.99
75438;BME280;64015;49.392;15.582;2023-08-08T11:55:40;95624.69;;;21.67;34.94
75438;BME280;64015;49.392;15.582;2023-08-08T11:58:07;95603.41;;;22.02;34.05
75438;BME280;64015;49.392;15.582;2023-08-08T12:00:37;95608.06;;;22.95;34.11
75438;BME280;64015;49.392;15.582;2023-08-08T12:03:03;95603.09;;;23.67;33.05
75438;BME280;64015;49.392;15.582;2023-08-08T12:05:36;95583.66;;;24.88;31.00
75438;BME280;64015;49.392;15.582;2023-08-08T12:08:06;95583.72;;;26.48;28.45
75438;BME280;64015;49.392;15.582;2023-08-08T12:10:38;95578.19;;;26.82;26.47
75438;BME280;64015;49.392;15.582;2023-08-08T12:13:04;95621.09;;;26.80;27.31
75438;BME280;64015;49.392;15.582;2023-08-08T12:15:35;95610.69;;;25.71;27.76
75438;BME280;64015;49.392;15.582;2023-08-08T12:18:02;95607.50;;;25.61;28.89
75438;BME280;64015;49.392;15.582;2023-08-08T12:20:29;95601.31;;;23.75;30.89
75438;BME280;64015;49.392;15.582;2023-08-08T12:22:59;95624.59;;;21.91;32.88
75438;BME280;64015;49.392;15.582;2023-08-08T12:25:28;95633.63;;;20.82;35.99
75438;BME280;64015;49.392;15.582;2023-08-08T12:27:56;95618.81;;;20.27;38.15
75438;BME280;64015;49.392;15.582;2023-08-08T12:30:22;95634.72;;;19.79;38.88
75438;BME280;64015;49.392;15.582;2023-08-08T12:32:48;95633.16;;;19.57;40.30
75438;BME280;64015;49.392;15.582;2023-08-08T12:35:14;95614.72;;;19.76;40.73
75438;BME280;64015;49.392;15.582;2023-08-08T12:38:20;95623.28;;;19.90;41.90
75438;BME280;64015;49.392;15.582;2023-08-08T12:40:46;95616.28;;;20.43;39.76
75438;BME280;64015;49.392;15.582;2023-08-08T12:43:23;95607.88;;;21.70;37.75
75438;BME280;64015;49.392;15.582;2023-08-08T12:45:49;95592.47;;;22.85;36.74
75438;BME280;64015;49.392;15.582;2023-08-08T12:48:37;95583.34;;;23.25;35.12
75438;BME280;64015;49.392;15.582;2023-08-08T12:51:03;95588.53;;;22.67;34.92
75438;BME280;64015;49.392;15.582;2023-08-08T12:53:29;95604.31;;;22.06;36.17
75438;BME280;64015;49.392;15.582;2023-08-08T12:55:54;95595.03;;;21.35;38.58
75438;BME280;64015;49.392;15.582;2023-08-08T12:58:21;95601.16;;;21.76;38.36
75438;BME280;64015;49.392;15.582;2023-08-08T13:00:46;95591.72;;;23.39;35.81
75438;BME280;64015;49.392;15.582;2023-08-08T13:03:12;95604.53;;;23.80;34.41
75438;BME280;64015;49.392;15.582;2023-08-08T13:05:38;95578.13;;;23.32;34.12
75438;BME280;64015;49.392;15.582;2023-08-08T13:08:05;95584.19;;;22.62;35.99
75438;BME280;64015;49.392;15.582;2023-08-08T13:10:31;95592.25;;;21.59;37.69
75438;BME280;64015;49.392;15.582;2023-08-08T13:12:57;95596.88;;;20.82;40.29
75438;BME280;64015;49.392;15.582;2023-08-08T13:15:32;95590.50;;;20.51;41.06
75438;BME280;64015;49.392;15.582;2023-08-08T13:17:58;95593.16;;;19.93;41.40